createdAt,value
2022-09-15T00:01:29.482Z,78.37
2022-09-15T00:03:57.639Z,78.35
2022-09-15T00:06:25.710Z,78.48
2022-09-15T00:08:54.805Z,78.50
2022-09-15T00:11:26.666Z,78.64
2022-09-15T00:13:56.683Z,78.57
2022-09-15T00:16:26.904Z,78.24
2022-09-15T00:18:55.180Z,78.24
2022-09-15T00:21:26.529Z,78.48
2022-09-15T00:23:55.386Z,78.56
2022-09-15T00:26:27.178Z,78.59
2022-09-15T00:28:57.620Z,78.44
2022-09-15T00:31:28.121Z,78.48
2022-09-15T00:33:59.694Z,78.53
2022-09-15T00:36:27.780Z,78.57
2022-09-15T00:38:58.293Z,78.51
2022-09-15T00:41:26.869Z,78.55
2022-09-15T00:43:58.219Z,78.44
2022-09-15T00:46:33.048Z,78.40
2022-09-15T00:49:03.884Z,78.58
2022-09-15T00:51:59.706Z,78.48
2022-09-15T00:54:48.872Z,78.49
2022-09-15T00:57:26.774Z,78.35
2022-09-15T00:59:57.815Z,78.53
2022-09-15T01:02:33.211Z,78.55
2022-09-15T01:05:05.322Z,78.53
2022-09-15T01:07:59.715Z,78.64
2022-09-15T01:10:34.235Z,78.43
2022-09-15T01:13:05.692Z,78.43
2022-09-15T01:15:39.594Z,78.49
2022-09-15T01:18:42.994Z,78.51
2022-09-15T01:21:38.754Z,78.54
2022-09-15T01:24:33.067Z,78.34
2022-09-15T01:27:24.394Z,78.27
2022-09-15T01:29:58.324Z,78.32
2022-09-15T01:33:04.214Z,78.52
2022-09-15T01:35:58.369Z,78.62
2022-09-15T01:38:35.552Z,78.41
2022-09-15T01:41:27.075Z,78.68
2022-09-15T01:44:01.089Z,78.95
2022-09-15T01:46:33.456Z,79.16
2022-09-15T01:49:03.987Z,79.20
2022-09-15T01:51:34.924Z,79.11
2022-09-15T01:54:05.967Z,79.02
2022-09-15T01:56:37.312Z,79.21
2022-09-15T01:59:06.175Z,79.22
2022-09-15T02:01:50.038Z,79.30
2022-09-15T02:04:28.048Z,79.23
2022-09-15T02:07:11.891Z,79.20
2022-09-15T02:09:54.912Z,79.30
2022-09-15T02:12:45.511Z,79.26
2022-09-15T02:15:29.359Z,79.30
2022-09-15T02:17:59.473Z,79.26
2022-09-15T02:20:48.637Z,79.03
2022-09-15T02:23:27.789Z,79.15
2022-09-15T02:26:06.796Z,78.99
2022-09-15T02:28:39.070Z,79.07
2022-09-15T02:31:11.177Z,79.08
2022-09-15T02:33:45.347Z,79.04
2022-09-15T02:36:18.443Z,79.13
2022-09-15T02:38:54.495Z,79.13
2022-09-15T02:41:23.898Z,79.10
2022-09-15T02:43:52.611Z,79.22
2022-09-15T02:46:22.705Z,79.13
2022-09-15T02:48:50.978Z,79.19
2022-09-15T02:51:19.257Z,79.34
2022-09-15T02:53:47.531Z,79.48
2022-09-15T02:56:16.935Z,79.38
2022-09-15T02:58:45.520Z,79.40
2022-09-15T03:01:15.870Z,79.20
2022-09-15T03:03:45.616Z,79.30
2022-09-15T03:06:17.215Z,79.53
2022-09-15T03:08:52.335Z,79.60
2022-09-15T03:11:23.896Z,79.37
2022-09-15T03:13:57.805Z,79.24
2022-09-15T03:16:28.803Z,79.41
2022-09-15T03:18:59.783Z,79.68
2022-09-15T03:21:30.214Z,79.76
2022-09-15T03:23:59.162Z,79.54
2022-09-15T03:26:27.377Z,79.43
2022-09-15T03:28:55.859Z,79.93
2022-09-15T03:31:24.090Z,80.10
2022-09-15T03:33:55.175Z,80.12
2022-09-15T03:36:23.350Z,80.12
2022-09-15T03:38:51.595Z,79.95
2022-09-15T03:41:19.904Z,80.03
2022-09-15T03:43:48.179Z,80.36
2022-09-15T03:46:16.601Z,80.43
2022-09-15T03:48:44.855Z,80.47
2022-09-15T03:51:13.542Z,80.22
2022-09-15T03:53:42.495Z,80.28
2022-09-15T03:56:12.426Z,80.45
2022-09-15T03:58:40.910Z,80.65
2022-09-15T04:01:09.613Z,80.46
2022-09-15T04:03:44.173Z,80.18
2022-09-15T04:06:15.361Z,80.20
2022-09-15T04:08:43.958Z,80.28
2022-09-15T04:11:13.491Z,80.32
2022-09-15T04:13:42.643Z,80.35
2022-09-15T04:16:16.680Z,80.07
2022-09-15T04:18:45.446Z,80.09
2022-09-15T04:21:16.283Z,80.09
2022-09-15T04:23:45.258Z,80.24
2022-09-15T04:26:36.700Z,80.36
2022-09-15T04:29:11.630Z,80.25
2022-09-15T04:31:40.034Z,80.09
2022-09-15T04:34:08.282Z,80.21
2022-09-15T04:36:36.557Z,80.27
2022-09-15T04:39:06.881Z,80.32
2022-09-15T04:41:35.159Z,80.25
2022-09-15T04:44:03.435Z,80.17
2022-09-15T04:46:31.745Z,80.22
2022-09-15T04:49:00.293Z,80.30
2022-09-15T04:51:28.571Z,80.22
2022-09-15T04:53:56.745Z,80.57
2022-09-15T04:56:26.801Z,80.23
2022-09-15T04:59:03.269Z,80.26
2022-09-15T05:01:34.627Z,80.53
2022-09-15T05:04:04.270Z,80.54
2022-09-15T05:06:35.225Z,80.63
2022-09-15T05:09:10.070Z,80.47
2022-09-15T05:11:38.946Z,80.65
2022-09-15T05:14:08.348Z,80.60
2022-09-15T05:16:36.612Z,80.60
2022-09-15T05:19:05.114Z,80.75
2022-09-15T05:21:33.286Z,80.63
2022-09-15T05:24:02.242Z,80.69
2022-09-15T05:26:30.938Z,80.83
2022-09-15T05:29:06.712Z,80.88
2022-09-15T05:31:35.294Z,80.96
2022-09-15T05:34:05.826Z,80.68
2022-09-15T05:36:34.407Z,80.81
2022-09-15T05:39:02.607Z,80.95
2022-09-15T05:41:31.368Z,81.23
2022-09-15T05:43:59.542Z,81.26
2022-09-15T05:46:29.550Z,81.06
2022-09-15T05:48:59.487Z,81.33
2022-09-15T05:51:28.057Z,81.54
2022-09-15T05:53:56.810Z,81.31
2022-09-15T05:56:25.121Z,81.40
2022-09-15T05:58:53.339Z,81.33
2022-09-15T06:01:26.966Z,81.49
2022-09-15T06:03:56.511Z,81.60
2022-09-15T06:06:26.315Z,81.88
2022-09-15T06:08:58.764Z,81.74
2022-09-15T06:11:34.131Z,81.50
2022-09-15T06:14:04.260Z,81.57
2022-09-15T06:16:35.262Z,81.65
2022-09-15T06:19:04.227Z,81.72
2022-09-15T06:21:33.511Z,81.55
2022-09-15T06:24:04.656Z,81.65
2022-09-15T06:26:33.481Z,81.61
2022-09-15T06:29:05.229Z,81.70
2022-09-15T06:31:35.952Z,81.62
2022-09-15T06:34:10.450Z,81.69
2022-09-15T06:36:39.324Z,81.59
2022-09-15T06:39:08.827Z,81.72
2022-09-15T06:42:00.828Z,81.82
2022-09-15T06:44:27.925Z,82.06
2022-09-15T06:46:55.976Z,82.18
2022-09-15T06:49:24.355Z,82.19
2022-09-15T06:51:52.528Z,82.16
2022-09-15T06:54:20.704Z,82.44
2022-09-15T06:56:49.081Z,82.60
2022-09-15T06:59:17.665Z,82.59
2022-09-15T07:01:55.537Z,82.59
2022-09-15T07:04:23.753Z,82.55
2022-09-15T07:06:51.921Z,82.75
2022-09-15T07:09:19.985Z,82.84
2022-09-15T07:11:48.058Z,82.79
2022-09-15T07:14:16.128Z,82.98
2022-09-15T07:16:44.439Z,83.55
2022-09-15T07:19:12.793Z,83.78
2022-09-15T07:21:40.877Z,83.63
2022-09-15T07:24:10.862Z,83.43
2022-09-15T07:26:39.045Z,83.40
2022-09-15T07:29:07.528Z,83.54
2022-09-15T07:31:38.361Z,83.63
2022-09-15T07:34:07.355Z,83.70
2022-09-15T07:36:36.043Z,83.33
2022-09-15T07:39:05.770Z,83.45
2022-09-15T07:41:34.130Z,83.56
2022-09-15T07:44:03.001Z,83.78
2022-09-15T07:46:32.609Z,83.63
2022-09-15T07:49:03.393Z,83.86
2022-09-15T07:51:31.743Z,83.62
2022-09-15T07:54:00.735Z,83.66
2022-09-15T07:56:29.217Z,83.69
2022-09-15T07:58:57.894Z,83.54
2022-09-15T08:01:26.406Z,83.71
2022-09-15T08:03:54.781Z,83.61
2022-09-15T08:06:24.776Z,83.58
2022-09-15T08:08:57.729Z,84.01
2022-09-15T08:11:28.474Z,83.86
2022-09-15T08:13:56.986Z,83.75
2022-09-15T08:16:25.454Z,83.73
2022-09-15T08:18:54.653Z,83.74
2022-09-15T08:21:23.958Z,83.86
2022-09-15T08:23:57.558Z,83.85
2022-09-15T08:26:27.721Z,83.67
2022-09-15T08:28:55.851Z,83.71
2022-09-15T08:31:24.796Z,83.69
2022-09-15T08:33:55.290Z,83.60
2022-09-15T08:36:24.878Z,83.74
2022-09-15T08:38:53.153Z,83.69
2022-09-15T08:41:24.427Z,83.59
2022-09-15T08:44:05.829Z,83.82
2022-09-15T08:47:08.364Z,83.81
2022-09-15T08:49:58.861Z,83.85
2022-09-15T08:52:39.426Z,83.89
2022-09-15T08:55:17.765Z,84.25
2022-09-15T08:57:46.013Z,84.64
2022-09-15T09:00:16.847Z,84.64
2022-09-15T09:03:30.182Z,84.43
2022-09-15T09:06:00.984Z,84.72
2022-09-15T09:08:47.727Z,84.92
2022-09-15T09:11:33.932Z,85.10
2022-09-15T09:14:18.173Z,84.94
2022-09-15T09:17:12.664Z,84.68
2022-09-15T09:20:12.274Z,85.08
2022-09-15T09:22:44.237Z,85.13
2022-09-15T09:25:27.129Z,84.83
2022-09-15T09:27:58.614Z,85.12
2022-09-15T09:30:32.625Z,85.66
2022-09-15T09:33:24.961Z,85.53
2022-09-15T09:35:53.541Z,85.24
2022-09-15T09:38:26.733Z,85.26
2022-09-15T09:40:57.573Z,85.51
2022-09-15T09:43:30.211Z,85.76
2022-09-15T09:45:59.527Z,85.56
2022-09-15T09:48:29.018Z,85.53
2022-09-15T09:50:57.535Z,85.64
2022-09-15T09:53:33.494Z,85.55
2022-09-15T09:56:25.013Z,85.34
2022-09-15T09:58:54.836Z,85.44
2022-09-15T10:01:26.316Z,85.73
2022-09-15T10:04:18.103Z,85.88
2022-09-15T10:06:46.823Z,85.94
2022-09-15T10:09:19.665Z,86.01
2022-09-15T10:11:53.072Z,85.69
2022-09-15T10:14:38.988Z,85.67
2022-09-15T10:17:13.177Z,85.67
2022-09-15T10:19:58.966Z,85.74
2022-09-15T10:22:36.542Z,85.68
2022-09-15T10:25:39.468Z,85.52
2022-09-15T10:28:18.573Z,85.48
2022-09-15T10:31:01.906Z,85.45
2022-09-15T10:33:35.315Z,85.54
2022-09-15T10:36:06.841Z,85.25
2022-09-15T10:38:45.983Z,85.32
2022-09-15T10:41:20.997Z,85.45
2022-09-15T10:44:34.351Z,85.45
2022-09-15T10:47:33.244Z,85.18
2022-09-15T10:50:01.631Z,85.28
2022-09-15T10:53:07.480Z,85.24
2022-09-15T10:56:23.682Z,85.37
2022-09-15T10:59:10.592Z,84.94
2022-09-15T11:01:58.469Z,84.96
2022-09-15T11:04:42.884Z,84.78
2022-09-15T11:07:26.622Z,84.61
2022-09-15T11:10:10.874Z,84.57
2022-09-15T11:12:46.419Z,84.51
2022-09-15T11:15:49.592Z,84.54
2022-09-15T11:18:51.376Z,84.41
2022-09-15T11:21:46.275Z,84.63
2022-09-15T11:24:48.651Z,84.57
2022-09-15T11:27:19.691Z,84.66
2022-09-15T11:29:48.105Z,84.91
2022-09-15T11:32:25.461Z,84.85
2022-09-15T11:35:02.133Z,84.65
2022-09-15T11:37:38.806Z,84.26
2022-09-15T11:40:25.582Z,84.05
2022-09-15T11:43:00.857Z,83.88
2022-09-15T11:45:34.560Z,83.77
2022-09-15T11:48:15.227Z,83.38
2022-09-15T11:50:47.192Z,82.81
2022-09-15T11:53:35.843Z,82.97
2022-09-15T11:56:29.413Z,83.21
2022-09-15T11:59:27.098Z,82.70
2022-09-15T12:02:04.530Z,82.50
2022-09-15T12:04:39.074Z,81.98
2022-09-15T12:07:23.446Z,81.42
2022-09-15T12:09:51.830Z,81.70
2022-09-15T12:12:21.943Z,82.01
2022-09-15T12:14:53.490Z,81.97
2022-09-15T12:17:45.735Z,81.78
2022-09-15T12:20:36.231Z,81.78
2022-09-15T12:23:34.799Z,81.77
2022-09-15T12:26:19.068Z,81.29
2022-09-15T12:28:47.040Z,81.24
2022-09-15T12:31:28.297Z,80.93
2022-09-15T12:34:03.865Z,80.50
2022-09-15T12:36:33.928Z,80.26
2022-09-15T12:39:06.047Z,80.18
2022-09-15T12:41:34.225Z,80.19
2022-09-15T12:44:18.373Z,79.90
2022-09-15T12:46:58.427Z,79.72
2022-09-15T12:49:34.381Z,79.97
2022-09-15T12:52:08.187Z,79.06
2022-09-15T12:54:40.049Z,79.05
2022-09-15T12:57:20.816Z,78.07
2022-09-15T12:59:48.990Z,78.14
2022-09-15T13:02:46.295Z,78.20
2022-09-15T13:05:37.141Z,78.39
2022-09-15T13:08:15.669Z,78.05
2022-09-15T13:11:11.288Z,77.84
2022-09-15T13:14:16.941Z,77.78
2022-09-15T13:17:01.371Z,77.83
2022-09-15T13:19:41.752Z,77.85
2022-09-15T13:22:09.929Z,77.75
2022-09-15T13:25:06.061Z,78.07
2022-09-15T13:27:42.114Z,77.86
2022-09-15T13:30:26.572Z,78.10
2022-09-15T13:32:57.509Z,77.97
2022-09-15T13:35:34.183Z,78.02
2022-09-15T13:38:23.780Z,78.13
2022-09-15T13:41:16.508Z,78.46
2022-09-15T13:44:15.177Z,78.27
2022-09-15T13:47:01.496Z,78.52
2022-09-15T13:50:12.574Z,78.60
2022-09-15T13:53:05.053Z,78.27
2022-09-15T13:55:39.526Z,78.38
2022-09-15T14:01:05.839Z,78.46
2022-09-15T14:03:37.547Z,78.08
2022-09-15T14:06:15.680Z,78.04
2022-09-15T14:08:48.387Z,78.11
2022-09-15T14:11:21.922Z,77.90
2022-09-15T14:13:51.623Z,77.99
2022-09-15T14:16:28.081Z,77.92
2022-09-15T14:18:58.639Z,77.77
2022-09-15T14:21:29.979Z,77.67
2022-09-15T14:24:00.698Z,77.59
2022-09-15T14:26:30.946Z,77.74
2022-09-15T14:29:01.678Z,78.10
2022-09-15T14:31:41.193Z,78.15
2022-09-15T14:34:21.987Z,78.15
2022-09-15T14:37:08.083Z,78.06
2022-09-15T14:39:37.999Z,77.98
2022-09-15T14:42:30.957Z,78.18
2022-09-15T14:48:07.330Z,78.15
2022-09-15T14:50:35.929Z,78.16
2022-09-15T14:53:24.987Z,78.24
2022-09-15T14:56:08.526Z,78.24
2022-09-15T14:58:48.061Z,78.36
2022-09-15T15:01:28.270Z,78.39
2022-09-15T15:04:03.255Z,78.29
2022-09-15T15:06:34.187Z,78.22
2022-09-15T15:09:23.764Z,77.98
2022-09-15T15:11:55.519Z,78.02
2022-09-15T15:17:08.395Z,78.30
2022-09-15T15:19:41.852Z,78.25
2022-09-15T15:22:21.294Z,78.24
2022-09-15T15:24:52.626Z,78.02
2022-09-15T15:27:32.691Z,78.17
2022-09-15T15:30:29.844Z,78.30
2022-09-15T15:33:01.503Z,78.55
2022-09-15T15:35:31.107Z,78.62
2022-09-15T15:38:05.529Z,78.43
2022-09-15T15:40:36.139Z,78.53
2022-09-15T15:43:16.324Z,78.61
2022-09-15T15:46:02.378Z,78.62
2022-09-15T15:48:38.320Z,78.63
2022-09-15T15:51:07.858Z,78.73
2022-09-15T15:53:35.867Z,78.61
2022-09-15T15:56:04.523Z,78.60
2022-09-15T15:58:32.498Z,78.63
2022-09-15T16:01:01.086Z,78.79
2022-09-15T16:03:29.163Z,79.09
2022-09-15T16:05:59.559Z,78.91
2022-09-15T16:08:40.343Z,78.78
2022-09-15T16:11:12.191Z,78.58
2022-09-15T16:13:40.685Z,78.62
2022-09-15T16:16:19.693Z,78.71
2022-09-15T16:18:49.160Z,78.77
2022-09-15T16:21:21.591Z,78.89
2022-09-15T16:23:49.660Z,78.80
2022-09-15T16:26:24.184Z,78.89
2022-09-15T16:28:52.665Z,79.00
2022-09-15T16:31:20.911Z,79.18
2022-09-15T16:33:49.934Z,79.25
2022-09-15T16:36:18.517Z,79.40
2022-09-15T16:38:46.588Z,79.23
2022-09-15T16:41:17.323Z,79.43
2022-09-15T16:43:46.725Z,79.58
2022-09-15T16:46:15.791Z,79.76
2022-09-15T16:48:44.602Z,80.01
2022-09-15T16:51:27.988Z,80.02
2022-09-15T16:53:58.059Z,79.95
2022-09-15T16:56:27.187Z,80.11
2022-09-15T16:59:00.083Z,80.26
2022-09-15T17:01:29.240Z,80.53
2022-09-15T17:03:57.819Z,80.43
2022-09-15T17:06:25.993Z,80.33
2022-09-15T17:08:54.603Z,80.37
2022-09-15T17:11:25.923Z,80.63
2022-09-15T17:13:54.662Z,80.67
2022-09-15T17:16:23.127Z,80.87
2022-09-15T17:18:51.368Z,80.90
2022-09-15T17:21:20.051Z,80.99
2022-09-15T17:23:49.937Z,81.24
2022-09-15T17:26:22.032Z,81.66
2022-09-15T17:28:51.116Z,81.64
2022-09-15T17:31:22.848Z,81.73
2022-09-15T17:33:51.570Z,81.97
2022-09-15T17:36:20.154Z,82.21
2022-09-15T17:38:51.398Z,82.22
2022-09-15T17:41:22.646Z,82.11
2022-09-15T17:43:52.099Z,82.28
2022-09-15T17:46:20.351Z,82.39
2022-09-15T17:48:48.713Z,82.44
2022-09-15T17:51:17.984Z,82.68
2022-09-15T17:53:47.509Z,82.58
2022-09-15T17:56:15.791Z,82.85
2022-09-15T17:58:45.094Z,82.92
2022-09-15T18:01:14.635Z,82.85
2022-09-15T18:03:45.323Z,82.90
2022-09-15T18:06:14.421Z,82.87
2022-09-15T18:08:43.017Z,82.96
2022-09-15T18:11:15.054Z,83.14
2022-09-15T18:13:43.404Z,83.18
2022-09-15T18:16:14.292Z,83.28
2022-09-15T18:18:43.204Z,83.22
2022-09-15T18:21:25.375Z,83.38
2022-09-15T18:23:53.754Z,83.31
2022-09-15T18:26:26.199Z,83.44
2022-09-15T18:28:56.143Z,83.22
2022-09-15T18:31:24.803Z,83.19
2022-09-15T18:33:53.394Z,82.83
2022-09-15T18:36:21.689Z,82.79
2022-09-15T18:38:49.862Z,82.65
2022-09-15T18:41:18.753Z,82.85
2022-09-15T18:43:49.896Z,82.84
2022-09-15T18:46:18.779Z,82.76
2022-09-15T18:48:46.961Z,82.89
2022-09-15T18:51:23.727Z,83.05
2022-09-15T18:53:54.416Z,83.20
2022-09-15T18:56:22.848Z,83.05
2022-09-15T18:58:53.993Z,82.76
2022-09-15T19:01:23.234Z,82.60
2022-09-15T19:03:51.671Z,82.53
2022-09-15T19:06:19.742Z,82.60
2022-09-15T19:08:47.813Z,82.54
2022-09-15T19:11:16.304Z,82.51
2022-09-15T19:13:44.692Z,82.20
2022-09-15T19:16:12.980Z,82.35
2022-09-15T19:18:41.225Z,82.31
2022-09-15T19:21:11.858Z,82.40
2022-09-15T19:23:40.035Z,82.36
2022-09-15T19:26:13.837Z,82.01
2022-09-15T19:28:49.898Z,82.12
2022-09-15T19:31:18.532Z,82.18
2022-09-15T19:33:47.984Z,81.99
2022-09-15T19:36:28.017Z,81.92
2022-09-15T19:38:58.565Z,81.80
2022-09-15T19:41:27.255Z,81.77
2022-09-15T19:43:56.813Z,81.84
2022-09-15T19:46:25.717Z,81.99
2022-09-15T19:48:55.029Z,82.05
2022-09-15T19:51:23.976Z,81.73
2022-09-15T19:53:56.749Z,81.54
2022-09-15T19:56:29.094Z,81.64
2022-09-15T19:58:58.621Z,81.69
2022-09-15T20:01:28.890Z,81.75
2022-09-15T20:06:43.087Z,81.68
2022-09-15T20:09:11.158Z,81.43
2022-09-15T20:11:39.481Z,81.50
2022-09-15T20:14:07.434Z,81.31
2022-09-15T20:16:35.806Z,81.29
2022-09-15T20:19:05.237Z,81.30
2022-09-15T20:21:50.001Z,81.23
2022-09-15T20:24:20.870Z,81.39
2022-09-15T20:26:49.269Z,81.23
2022-09-15T20:29:17.954Z,81.16
2022-09-15T20:31:46.914Z,81.32
2022-09-15T20:34:15.493Z,81.08
2022-09-15T20:36:44.011Z,80.88
2022-09-15T20:39:15.030Z,81.05
2022-09-15T20:41:45.260Z,81.09
2022-09-15T20:44:14.607Z,81.15
2022-09-15T20:46:43.346Z,81.16
2022-09-15T20:49:12.353Z,81.00
2022-09-15T20:51:40.531Z,81.24
2022-09-15T20:54:10.978Z,81.48
2022-09-15T20:56:39.231Z,81.48
2022-09-15T20:59:10.649Z,81.56
2022-09-15T21:01:40.151Z,81.30
2022-09-15T21:04:09.998Z,81.35
2022-09-15T21:06:38.785Z,81.42
2022-09-15T21:09:07.676Z,81.35
2022-09-15T21:11:36.158Z,81.54
2022-09-15T21:14:04.331Z,81.48
2022-09-15T21:16:34.099Z,81.51
2022-09-15T21:19:02.625Z,81.62
2022-09-15T21:21:32.952Z,81.56
2022-09-15T21:24:07.459Z,81.75
2022-09-15T21:26:59.301Z,81.64
2022-09-15T21:29:28.645Z,81.73
2022-09-15T21:31:56.898Z,81.76
2022-09-15T21:34:25.153Z,81.86
2022-09-15T21:36:53.878Z,81.94
2022-09-15T21:39:22.217Z,81.62
2022-09-15T21:41:50.292Z,81.55
2022-09-15T21:44:18.359Z,81.49
2022-09-15T21:46:47.557Z,81.69
2022-09-15T21:49:18.190Z,81.81
2022-09-15T21:51:46.573Z,81.58
2022-09-15T21:54:15.253Z,81.47
2022-09-15T21:56:43.427Z,81.78
2022-09-15T21:59:11.579Z,81.83
2022-09-15T22:01:41.018Z,81.91
2022-09-15T22:04:10.815Z,81.90
2022-09-15T22:06:40.938Z,81.78
2022-09-15T22:09:13.717Z,81.45
2022-09-15T22:11:42.227Z,81.63
2022-09-15T22:14:10.585Z,81.91
2022-09-15T22:16:40.484Z,81.85
2022-09-15T22:19:11.141Z,81.69
2022-09-15T22:21:42.223Z,81.49
2022-09-15T22:24:13.031Z,81.65
2022-09-15T22:26:43.009Z,81.63
2022-09-15T22:29:11.601Z,81.80
2022-09-15T22:31:39.916Z,81.73
2022-09-15T22:34:08.050Z,81.52
2022-09-15T22:36:36.225Z,81.55
2022-09-15T22:39:05.830Z,81.85
2022-09-15T22:41:37.179Z,81.88
2022-09-15T22:44:06.686Z,82.17
2022-09-15T22:46:35.165Z,82.00
2022-09-15T22:49:03.339Z,82.04
2022-09-15T22:51:31.411Z,81.92
2022-09-15T22:54:03.168Z,81.80
2022-09-15T22:56:31.144Z,81.90
2022-09-15T22:58:59.515Z,82.16
2022-09-15T23:01:30.864Z,82.04
2022-09-15T23:04:02.112Z,82.02
2022-09-15T23:06:33.071Z,81.95
2022-09-15T23:09:05.632Z,82.18
2022-09-15T23:11:34.619Z,82.18
2022-09-15T23:14:03.790Z,82.31
2022-09-15T23:16:32.566Z,82.08
2022-09-15T23:19:00.983Z,82.07
2022-09-15T23:21:29.157Z,82.16
2022-09-15T23:23:57.638Z,82.24
2022-09-15T23:26:27.658Z,82.25
2022-09-15T23:28:56.062Z,82.17
2022-09-15T23:31:24.247Z,82.17
2022-09-15T23:33:52.381Z,82.24
2022-09-15T23:36:20.760Z,82.41
2022-09-15T23:38:49.481Z,82.49
2022-09-15T23:41:18.696Z,82.30
2022-09-15T23:43:47.413Z,82.24
2022-09-15T23:46:17.829Z,82.26
2022-09-15T23:48:46.033Z,82.39
2022-09-15T23:51:14.206Z,82.44
2022-09-15T23:53:42.585Z,82.69
2022-09-15T23:56:10.763Z,82.49
2022-09-15T23:58:39.227Z,82.41
